createdAt,value
2019-01-23T00:01:12.680Z,88.70
2019-01-23T00:03:40.938Z,89.40
2019-01-23T00:06:09.300Z,89.40
2019-01-23T00:08:37.540Z,89.20
2019-01-23T00:11:05.762Z,89.40
2019-01-23T00:13:34.128Z,88.70
2019-01-23T00:16:02.397Z,88.10
2019-01-23T00:18:30.674Z,88.10
2019-01-23T00:20:58.968Z,88.00
2019-01-23T00:23:46.354Z,88.60
2019-01-23T00:26:14.578Z,89.40
2019-01-23T00:28:42.908Z,88.50
2019-01-23T00:31:11.191Z,88.70
2019-01-23T00:33:39.457Z,88.80
2019-01-23T00:36:07.731Z,88.90
2019-01-23T00:38:35.939Z,90.00
2019-01-23T00:41:04.540Z,89.30
2019-01-23T00:43:32.763Z,89.30
2019-01-23T00:46:00.969Z,89.20
2019-01-23T00:48:29.161Z,90.00
2019-01-23T00:50:57.372Z,90.00
2019-01-23T00:53:25.664Z,89.60
2019-01-23T00:55:53.875Z,90.40
2019-01-23T00:58:22.123Z,89.70
2019-01-23T01:00:50.379Z,90.50
2019-01-23T01:03:18.681Z,89.40
2019-01-23T01:05:46.956Z,90.60
2019-01-23T01:08:15.251Z,90.80
2019-01-23T01:10:43.486Z,90.70
2019-01-23T01:13:11.744Z,90.80
2019-01-23T01:15:40.024Z,90.20
2019-01-23T01:18:27.483Z,90.70
2019-01-23T01:20:55.696Z,90.20
2019-01-23T01:23:43.146Z,90.10
2019-01-23T01:26:11.420Z,91.40
2019-01-23T01:28:58.815Z,89.40
2019-01-23T01:31:27.123Z,90.80
2019-01-23T01:33:55.403Z,91.00
2019-01-23T01:36:23.673Z,91.30
2019-01-23T01:38:52.217Z,90.70
2019-01-23T01:41:20.473Z,90.00
2019-01-23T01:43:48.709Z,90.30
2019-01-23T01:46:16.919Z,90.80
2019-01-23T01:48:45.183Z,90.30
2019-01-23T01:51:32.510Z,91.30
2019-01-23T01:54:00.797Z,90.20
2019-01-23T01:56:28.970Z,89.20
2019-01-23T01:59:02.682Z,90.10
2019-01-23T02:01:27.187Z,91.10
2019-01-23T02:03:55.408Z,91.00
2019-01-23T02:06:23.682Z,90.40
2019-01-23T02:08:51.940Z,88.50
2019-01-23T02:11:20.268Z,88.60
2019-01-23T02:13:48.547Z,90.80
2019-01-23T02:16:16.812Z,91.10
2019-01-23T02:18:45.067Z,90.20
2019-01-23T02:21:13.321Z,90.80
2019-01-23T02:23:41.592Z,90.80
2019-01-23T02:26:09.891Z,90.70
2019-01-23T02:28:38.225Z,90.90
2019-01-23T02:31:06.473Z,90.90
2019-01-23T02:33:40.513Z,91.40
2019-01-23T02:36:08.735Z,90.30
2019-01-23T02:38:37.011Z,90.50
2019-01-23T02:41:05.240Z,91.70
2019-01-23T02:43:33.496Z,92.00
2019-01-23T02:46:01.678Z,90.40
2019-01-23T02:48:29.982Z,90.20
2019-01-23T02:50:58.228Z,90.40
2019-01-23T02:53:26.582Z,91.00
2019-01-23T02:55:54.826Z,91.30
2019-01-23T02:58:23.020Z,91.20
2019-01-23T03:00:51.284Z,91.60
2019-01-23T03:03:19.578Z,92.10
2019-01-23T03:05:47.883Z,92.30
2019-01-23T03:08:16.119Z,91.90
2019-01-23T03:10:44.423Z,91.00
2019-01-23T03:13:12.722Z,91.60
2019-01-23T03:15:41.012Z,92.20
2019-01-23T03:18:09.425Z,92.40
2019-01-23T03:20:37.700Z,91.10
2019-01-23T03:23:25.053Z,91.20
2019-01-23T03:25:53.333Z,91.00
2019-01-23T03:28:21.551Z,91.00
2019-01-23T03:30:49.807Z,91.20
2019-01-23T03:33:18.196Z,90.90
2019-01-23T03:35:46.456Z,91.50
2019-01-23T03:38:33.840Z,91.10
2019-01-23T03:41:01.955Z,91.20
2019-01-23T03:43:30.183Z,91.10
2019-01-23T03:45:58.412Z,90.70
2019-01-23T03:48:26.991Z,90.50
2019-01-23T03:51:14.398Z,91.30
2019-01-23T03:53:42.624Z,92.00
2019-01-23T03:56:10.995Z,91.10
2019-01-23T03:58:39.256Z,91.00
2019-01-23T04:01:07.943Z,91.70
2019-01-23T04:03:36.206Z,92.10
2019-01-23T04:06:04.538Z,92.50
2019-01-23T04:08:32.801Z,92.10
2019-01-23T04:11:01.692Z,92.20
2019-01-23T04:13:29.943Z,92.60
2019-01-23T04:15:58.109Z,91.50
2019-01-23T04:18:26.303Z,91.40
2019-01-23T04:20:54.443Z,90.90
2019-01-23T04:23:23.883Z,91.60
2019-01-23T04:25:52.199Z,91.80
2019-01-23T04:28:20.372Z,92.70
2019-01-23T04:30:48.570Z,92.70
2019-01-23T04:33:16.722Z,93.30
2019-01-23T04:35:44.870Z,92.70
2019-01-23T04:38:13.546Z,91.80
2019-01-23T04:40:48.585Z,91.70
2019-01-23T04:43:18.520Z,91.50
2019-01-23T04:45:46.708Z,91.80
2019-01-23T04:48:14.787Z,91.10
2019-01-23T04:51:00.759Z,92.40
2019-01-23T04:53:41.268Z,92.70
2019-01-23T04:56:09.413Z,93.50
2019-01-23T04:58:37.691Z,92.40
2019-01-23T05:01:05.925Z,93.50
2019-01-23T05:03:34.245Z,92.60
2019-01-23T05:06:02.472Z,91.90
2019-01-23T05:08:30.644Z,90.80
2019-01-23T05:10:58.804Z,89.40
2019-01-23T05:13:26.966Z,89.30
2019-01-23T05:15:55.226Z,90.30
2019-01-23T05:18:23.462Z,88.40
2019-01-23T05:20:51.729Z,90.10
2019-01-23T05:23:20.005Z,90.80
2019-01-23T05:25:53.911Z,90.10
2019-01-23T05:28:22.125Z,90.00
2019-01-23T05:30:50.365Z,89.50
2019-01-23T05:33:18.595Z,88.60
2019-01-23T05:35:46.866Z,90.20
2019-01-23T05:38:34.217Z,88.20
2019-01-23T05:41:02.505Z,91.30
2019-01-23T05:43:30.717Z,91.20
2019-01-23T05:45:58.863Z,93.10
2019-01-23T05:48:27.073Z,92.20
2019-01-23T05:50:55.369Z,89.90
2019-01-23T05:53:23.635Z,90.50
2019-01-23T05:55:51.865Z,90.90
2019-01-23T05:58:26.039Z,91.20
2019-01-23T06:00:54.328Z,88.40
2019-01-23T06:03:22.620Z,90.90
2019-01-23T06:05:50.890Z,90.00
2019-01-23T06:08:19.170Z,90.10
2019-01-23T06:10:47.396Z,90.40
2019-01-23T06:13:15.567Z,91.00
2019-01-23T06:15:44.010Z,91.60
2019-01-23T06:18:12.285Z,90.50
2019-01-23T06:20:40.547Z,90.90
2019-01-23T06:23:08.728Z,89.00
2019-01-23T06:25:36.892Z,90.00
2019-01-23T06:28:04.985Z,92.20
2019-01-23T06:30:33.286Z,88.90
2019-01-23T06:33:01.512Z,91.40
2019-01-23T06:35:29.900Z,90.90
2019-01-23T06:37:58.180Z,92.00
2019-01-23T06:40:26.380Z,91.00
2019-01-23T06:42:54.588Z,90.60
2019-01-23T06:45:22.933Z,90.10
2019-01-23T06:47:51.139Z,88.70
2019-01-23T06:50:20.993Z,90.80
2019-01-23T06:52:49.376Z,88.20
2019-01-23T06:55:36.733Z,87.60
2019-01-23T06:58:05.151Z,87.60
2019-01-23T07:00:33.327Z,85.80
2019-01-23T07:03:01.482Z,89.40
2019-01-23T07:05:29.779Z,89.30
2019-01-23T07:07:58.001Z,90.20
2019-01-23T07:10:26.562Z,91.50
2019-01-23T07:12:54.870Z,92.70
2019-01-23T07:15:23.179Z,92.70
2019-01-23T07:18:10.500Z,91.50
2019-01-23T07:20:38.739Z,92.80
2019-01-23T07:23:06.894Z,90.70
2019-01-23T07:25:54.235Z,92.70
2019-01-23T07:28:41.572Z,93.60
2019-01-23T07:31:09.900Z,92.50
2019-01-23T07:33:38.180Z,93.60
2019-01-23T07:36:06.350Z,94.20
2019-01-23T07:38:34.452Z,94.60
2019-01-23T07:41:02.705Z,94.90
2019-01-23T07:43:31.002Z,94.70
2019-01-23T07:45:59.195Z,94.80
2019-01-23T07:48:27.420Z,94.80
2019-01-23T07:50:55.629Z,94.80
2019-01-23T07:53:23.852Z,95.10
2019-01-23T07:55:52.090Z,95.20
2019-01-23T07:58:20.353Z,95.10
2019-01-23T08:00:48.693Z,94.90
2019-01-23T08:03:16.986Z,94.70
2019-01-23T08:05:45.166Z,95.00
2019-01-23T08:08:13.493Z,92.30
2019-01-23T08:10:41.773Z,94.00
2019-01-23T08:13:10.057Z,94.00
2019-01-23T08:15:38.221Z,94.20
2019-01-23T08:18:07.082Z,91.90
2019-01-23T08:20:35.341Z,93.00
2019-01-23T08:23:03.540Z,93.20
2019-01-23T08:25:31.838Z,93.00
2019-01-23T08:27:59.980Z,94.10
2019-01-23T08:30:28.117Z,91.30
2019-01-23T08:32:56.558Z,93.50
2019-01-23T08:35:27.516Z,92.90
2019-01-23T08:37:55.727Z,94.20
2019-01-23T08:40:23.970Z,94.70
2019-01-23T08:42:52.305Z,94.60
2019-01-23T08:45:39.660Z,94.60
2019-01-23T08:48:07.897Z,94.80
2019-01-23T08:50:38.800Z,93.90
2019-01-23T08:53:06.994Z,94.70
2019-01-23T08:55:35.200Z,94.70
2019-01-23T08:58:03.335Z,94.80
2019-01-23T09:00:31.655Z,95.00
2019-01-23T09:02:59.875Z,94.90
2019-01-23T09:05:28.107Z,94.80
2019-01-23T09:07:56.451Z,95.00
2019-01-23T09:10:24.746Z,95.00
2019-01-23T09:12:55.873Z,95.10
2019-01-23T09:15:24.113Z,94.90
2019-01-23T09:17:52.812Z,94.60
2019-01-23T09:20:21.013Z,94.70
2019-01-23T09:22:49.179Z,95.10
2019-01-23T09:25:19.152Z,94.70
2019-01-23T09:27:47.310Z,95.20
2019-01-23T09:30:21.654Z,94.30
2019-01-23T09:33:12.105Z,93.20
2019-01-23T09:35:52.322Z,93.20
2019-01-23T09:38:56.591Z,93.30
2019-01-23T09:41:47.104Z,92.80
2019-01-23T09:44:51.382Z,93.10
2019-01-23T09:47:49.264Z,92.30
2019-01-23T09:51:03.648Z,91.90
2019-01-23T09:53:37.171Z,90.20
2019-01-23T09:56:05.737Z,91.30
2019-01-23T09:58:34.033Z,90.70
2019-01-23T10:01:02.303Z,86.90
2019-01-23T10:03:30.526Z,88.90
2019-01-23T10:05:58.734Z,89.40
2019-01-23T10:08:26.973Z,91.00
2019-01-23T10:10:55.230Z,90.00
2019-01-23T10:13:23.483Z,89.30
2019-01-23T10:16:07.905Z,88.70
2019-01-23T10:18:36.240Z,88.90
2019-01-23T10:21:04.530Z,90.00
2019-01-23T10:23:52.132Z,90.10
2019-01-23T10:26:20.311Z,89.20
2019-01-23T10:28:48.628Z,88.20
2019-01-23T10:31:16.930Z,88.30
2019-01-23T10:33:45.912Z,88.40
2019-01-23T10:36:14.028Z,89.00
2019-01-23T10:38:42.360Z,89.70
2019-01-23T10:41:10.532Z,89.70
2019-01-23T10:43:38.766Z,90.10
2019-01-23T10:46:07.068Z,88.80
2019-01-23T10:48:38.091Z,89.10
2019-01-23T10:51:05.112Z,87.70
2019-01-23T10:53:52.487Z,88.70
2019-01-23T10:56:20.727Z,89.30
2019-01-23T10:58:49.018Z,88.60
2019-01-23T11:01:17.237Z,88.90
2019-01-23T11:03:45.487Z,88.00
2019-01-23T11:06:13.649Z,87.80
2019-01-23T11:08:41.950Z,85.50
2019-01-23T11:11:10.201Z,87.90
2019-01-23T11:13:41.119Z,87.10
2019-01-23T11:16:09.402Z,87.00
2019-01-23T11:18:37.919Z,86.20
2019-01-23T11:21:25.248Z,86.50
2019-01-23T11:23:53.509Z,88.90
2019-01-23T11:26:21.751Z,86.40
2019-01-23T11:28:50.048Z,87.50
2019-01-23T11:31:37.361Z,86.20
2019-01-23T11:34:24.743Z,88.10
2019-01-23T11:36:53.006Z,88.70
2019-01-23T11:39:21.114Z,88.10
2019-01-23T11:41:49.350Z,86.80
2019-01-23T11:44:17.545Z,86.80
2019-01-23T11:46:45.834Z,88.40
2019-01-23T11:49:14.304Z,88.00
2019-01-23T11:51:42.521Z,85.30
2019-01-23T11:54:10.879Z,87.30
2019-01-23T11:56:39.188Z,84.60
2019-01-23T11:59:07.477Z,88.20
2019-01-23T12:01:35.811Z,87.90
2019-01-23T12:04:04.087Z,87.60
2019-01-23T12:06:32.337Z,88.20
2019-01-23T12:09:00.727Z,85.80
2019-01-23T12:11:48.153Z,87.80
2019-01-23T12:14:16.394Z,86.30
2019-01-23T12:16:44.598Z,87.40
2019-01-23T12:19:12.917Z,87.30
2019-01-23T12:21:41.213Z,87.70
2019-01-23T12:24:09.483Z,88.00
2019-01-23T12:26:38.249Z,87.60
2019-01-23T12:29:06.644Z,85.70
2019-01-23T12:31:35.385Z,86.90
2019-01-23T12:34:04.779Z,89.60
2019-01-23T12:36:32.973Z,88.30
2019-01-23T12:39:01.170Z,89.80
2019-01-23T12:41:29.338Z,89.30
2019-01-23T12:43:57.851Z,89.20
2019-01-23T12:46:26.096Z,87.00
2019-01-23T12:48:54.222Z,88.80
2019-01-23T12:51:22.406Z,88.90
2019-01-23T12:53:50.777Z,85.70
2019-01-23T12:56:19.165Z,90.20
2019-01-23T12:58:47.434Z,88.20
2019-01-23T13:01:15.809Z,88.80
2019-01-23T13:03:44.025Z,89.60
2019-01-23T13:06:12.312Z,88.60
2019-01-23T13:08:40.563Z,87.60
2019-01-23T13:11:08.818Z,90.00
2019-01-23T13:13:37.158Z,89.10
2019-01-23T13:16:05.550Z,90.00
2019-01-23T13:18:53.229Z,88.10
2019-01-23T13:21:21.535Z,87.10
2019-01-23T13:23:49.783Z,90.00
2019-01-23T13:26:18.039Z,89.30
2019-01-23T13:28:46.291Z,86.50
2019-01-23T13:31:14.461Z,88.90
2019-01-23T13:33:42.666Z,89.10
2019-01-23T13:36:10.969Z,89.50
2019-01-23T13:38:39.279Z,87.70
2019-01-23T13:41:07.672Z,89.70
2019-01-23T13:43:35.860Z,89.30
2019-01-23T13:46:04.112Z,88.10
2019-01-23T13:48:32.431Z,88.30
2019-01-23T13:51:00.621Z,88.80
2019-01-23T13:53:28.999Z,88.50
2019-01-23T13:55:57.262Z,88.40
2019-01-23T13:58:25.790Z,89.50
2019-01-23T14:00:54.020Z,81.50
2019-01-23T14:03:22.266Z,86.70
2019-01-23T14:05:50.444Z,89.30
2019-01-23T14:08:18.712Z,88.90
2019-01-23T14:10:46.978Z,85.60
2019-01-23T14:13:15.296Z,88.20
2019-01-23T14:15:43.635Z,89.00
2019-01-23T14:18:11.836Z,89.60
2019-01-23T14:20:40.122Z,89.10
2019-01-23T14:23:08.482Z,88.20
2019-01-23T14:25:36.734Z,88.40
2019-01-23T14:28:24.095Z,89.20
2019-01-23T14:30:52.340Z,88.40
2019-01-23T14:33:20.723Z,84.40
2019-01-23T14:35:49.102Z,89.60
2019-01-23T14:38:17.304Z,89.30
2019-01-23T14:40:45.599Z,88.50
2019-01-23T14:43:13.971Z,88.40
2019-01-23T14:45:56.334Z,84.80
2019-01-23T14:48:12.417Z,87.70
2019-01-23T14:50:40.663Z,88.30
2019-01-23T14:53:08.840Z,88.40
2019-01-23T14:55:37.239Z,87.60
2019-01-23T14:58:05.516Z,87.50
2019-01-23T15:00:33.708Z,88.30
2019-01-23T15:03:02.022Z,88.50
2019-01-23T15:05:30.549Z,88.20
2019-01-23T15:07:58.874Z,88.50
2019-01-23T15:10:28.764Z,88.30
2019-01-23T15:12:57.123Z,88.90
2019-01-23T15:15:25.483Z,87.90
2019-01-23T15:17:54.037Z,87.40
2019-01-23T15:20:31.629Z,89.30
2019-01-23T15:22:59.912Z,87.90
2019-01-23T15:25:28.763Z,89.60
2019-01-23T15:27:56.992Z,89.60
2019-01-23T15:30:25.829Z,89.20
2019-01-23T15:32:54.117Z,89.10
2019-01-23T15:35:22.616Z,89.00
2019-01-23T15:37:50.957Z,88.90
2019-01-23T15:40:24.633Z,85.20
2019-01-23T15:42:52.918Z,90.10
2019-01-23T15:45:21.369Z,89.10
2019-01-23T15:47:49.829Z,89.10
2019-01-23T15:50:25.749Z,88.70
2019-01-23T15:52:54.030Z,89.80
2019-01-23T15:55:23.511Z,89.00
2019-01-23T15:57:51.826Z,89.10
2019-01-23T16:10:42.314Z,47.22
2019-01-23T16:13:10.512Z,52.71
2019-01-23T16:15:38.725Z,57.55
2019-01-23T16:18:06.886Z,60.00
2019-01-23T16:20:35.202Z,61.31
2019-01-23T16:23:03.300Z,61.89
2019-01-23T16:25:31.435Z,62.96
2019-01-23T16:27:59.800Z,63.06
2019-01-23T16:30:48.380Z,63.25
2019-01-23T16:33:38.375Z,64.09
2019-01-23T16:36:11.712Z,63.76
2019-01-23T16:38:39.756Z,64.22
2019-01-23T16:41:07.989Z,63.25
2019-01-23T16:43:36.145Z,63.57
2019-01-23T16:46:04.310Z,64.71
2019-01-23T16:48:41.439Z,64.34
2019-01-23T16:51:09.686Z,64.38
2019-01-23T16:53:37.797Z,64.46
2019-01-23T16:56:06.160Z,63.55
2019-01-23T16:58:34.339Z,63.81
2019-01-23T17:01:05.063Z,65.35
2019-01-23T17:03:33.551Z,65.63
2019-01-23T17:06:02.374Z,65.55
2019-01-23T17:08:30.459Z,66.30
2019-01-23T17:10:58.780Z,65.55
2019-01-23T17:13:29.019Z,65.73
2019-01-23T17:15:57.258Z,65.41
2019-01-23T17:18:25.623Z,65.20
2019-01-23T17:20:54.018Z,65.30
2019-01-23T17:23:22.117Z,64.98
2019-01-23T17:25:57.951Z,64.75
2019-01-23T17:28:26.406Z,64.73
2019-01-23T17:30:54.872Z,65.04
2019-01-23T17:33:33.516Z,66.07
2019-01-23T17:36:04.733Z,65.35
2019-01-23T17:38:34.175Z,65.02
2019-01-23T17:41:03.105Z,65.35
2019-01-23T17:43:32.375Z,64.65
2019-01-23T17:46:01.031Z,65.14
2019-01-23T17:48:29.925Z,64.45
2019-01-23T17:50:58.348Z,65.74
2019-01-23T17:53:27.640Z,65.71
2019-01-23T17:55:56.414Z,65.39
2019-01-23T17:58:24.991Z,65.70
2019-01-23T18:01:12.700Z,66.63
2019-01-23T18:03:43.985Z,65.21
2019-01-23T18:06:12.652Z,63.87
2019-01-23T18:08:41.223Z,64.81
2019-01-23T18:11:10.329Z,65.26
2019-01-23T18:13:38.636Z,66.30
2019-01-23T18:16:10.376Z,65.83
2019-01-23T18:18:39.021Z,65.99
2019-01-23T18:21:07.735Z,66.49
2019-01-23T18:23:36.827Z,65.44
2019-01-23T18:26:05.389Z,66.00
2019-01-23T18:28:34.152Z,65.68
2019-01-23T18:31:11.746Z,66.71
2019-01-23T18:34:12.060Z,67.20
2019-01-23T18:37:18.333Z,66.28
2019-01-23T18:40:34.454Z,66.33
2019-01-23T18:43:39.788Z,66.34
2019-01-23T18:46:55.456Z,66.37
2019-01-23T18:49:43.368Z,66.11
2019-01-23T18:52:13.988Z,66.25
2019-01-23T18:54:42.524Z,66.63
2019-01-23T18:57:14.469Z,66.72
2019-01-23T18:59:43.767Z,65.52
2019-01-23T19:02:12.277Z,65.93
2019-01-23T19:04:40.851Z,66.35
2019-01-23T19:07:09.456Z,66.29
2019-01-23T19:09:37.676Z,66.25
2019-01-23T19:12:06.899Z,66.13
2019-01-23T19:14:35.601Z,66.08
2019-01-23T19:17:04.393Z,65.91
2019-01-23T19:19:33.210Z,66.07
2019-01-23T19:22:01.843Z,66.02
2019-01-23T19:24:31.538Z,65.83
2019-01-23T19:27:02.007Z,66.04
2019-01-23T19:29:30.563Z,66.11
2019-01-23T19:31:59.309Z,66.00
2019-01-23T19:34:29.416Z,66.42
2019-01-23T19:36:58.444Z,65.54
2019-01-23T19:39:27.771Z,66.07
2019-01-23T19:41:56.429Z,65.97
2019-01-23T19:44:25.011Z,66.06
2019-01-23T19:46:54.039Z,66.05
2019-01-23T19:49:24.266Z,65.80
2019-01-23T19:51:53.158Z,65.37
2019-01-23T19:54:22.054Z,66.04
2019-01-23T19:56:50.679Z,65.57
2019-01-23T19:59:19.930Z,65.96
2019-01-23T20:01:48.276Z,66.06
2019-01-23T20:04:16.637Z,66.39
2019-01-23T20:07:07.463Z,66.43
2019-01-23T20:09:36.378Z,66.75
2019-01-23T20:12:05.257Z,66.24
2019-01-23T20:14:33.927Z,66.29
2019-01-23T20:19:36.695Z,66.25
2019-01-23T20:22:05.284Z,66.27
2019-01-23T20:24:33.841Z,66.29
2019-01-23T20:27:06.101Z,66.61
2019-01-23T20:29:34.591Z,65.82
2019-01-23T20:32:02.902Z,65.61
2019-01-23T20:34:31.098Z,65.75
2019-01-23T20:36:59.693Z,66.34
2019-01-23T20:39:28.057Z,66.07
2019-01-23T20:44:43.568Z,66.57
2019-01-23T20:47:11.980Z,66.19
2019-01-23T20:49:40.708Z,65.56
2019-01-23T20:52:08.943Z,66.71
2019-01-23T20:54:37.030Z,66.25
2019-01-23T20:57:05.070Z,66.29
2019-01-23T20:59:33.277Z,67.05
2019-01-23T21:02:01.844Z,65.79
2019-01-23T21:04:30.826Z,66.21
2019-01-23T21:06:59.283Z,66.13
2019-01-23T21:09:27.452Z,66.36
2019-01-23T21:11:56.308Z,66.66
2019-01-23T21:14:24.560Z,66.89
2019-01-23T21:16:53.806Z,66.43
2019-01-23T21:19:22.278Z,66.56
2019-01-23T21:21:50.341Z,66.78
2019-01-23T21:24:18.475Z,66.22
2019-01-23T21:26:46.603Z,66.48
2019-01-23T21:29:14.743Z,65.99
2019-01-23T21:31:43.342Z,65.91
2019-01-23T21:34:11.614Z,66.08
2019-01-23T21:36:39.637Z,65.87
2019-01-23T21:39:09.662Z,65.89
2019-01-23T21:41:37.677Z,66.05
2019-01-23T21:44:05.898Z,66.07
2019-01-23T21:46:34.066Z,65.90
2019-01-23T21:49:02.140Z,66.08
2019-01-23T21:51:31.553Z,65.98
2019-01-23T21:53:59.716Z,66.24
2019-01-23T21:56:27.698Z,66.06
2019-01-23T21:58:55.839Z,66.09
2019-01-23T22:01:23.884Z,66.08
2019-01-23T22:03:52.006Z,66.20
2019-01-23T22:06:20.103Z,66.25
2019-01-23T22:08:48.278Z,66.08
2019-01-23T22:11:16.342Z,66.05
2019-01-23T22:13:44.427Z,66.20
2019-01-23T22:16:12.454Z,66.22
2019-01-23T22:18:40.638Z,68.14
2019-01-23T22:21:08.733Z,68.07
2019-01-23T22:23:36.776Z,68.82
2019-01-23T22:26:04.854Z,67.76
2019-01-23T22:28:33.097Z,67.07
2019-01-23T22:31:02.345Z,66.86
2019-01-23T22:33:30.415Z,66.82
2019-01-23T22:35:58.466Z,66.49
2019-01-23T22:38:26.619Z,66.23
2019-01-23T22:40:54.705Z,66.19
2019-01-23T22:43:22.802Z,66.27
2019-01-23T22:45:50.931Z,66.19
2019-01-23T22:48:18.980Z,66.40
2019-01-23T22:50:47.028Z,66.51
2019-01-23T22:53:35.694Z,66.26
2019-01-23T22:56:03.764Z,66.78
2019-01-23T22:58:31.854Z,66.71
2019-01-23T23:01:27.186Z,67.09
2019-01-23T23:03:55.220Z,67.50
2019-01-23T23:06:23.294Z,66.68
2019-01-23T23:08:51.382Z,67.55
2019-01-23T23:11:19.362Z,68.15
2019-01-23T23:13:48.250Z,66.93
2019-01-23T23:16:16.258Z,66.96
2019-01-23T23:18:44.269Z,66.68
2019-01-23T23:21:12.362Z,66.16
2019-01-23T23:23:40.455Z,66.29
2019-01-23T23:26:08.592Z,66.12
2019-01-23T23:28:36.671Z,66.30
2019-01-23T23:31:04.778Z,66.11
2019-01-23T23:33:32.783Z,66.39
2019-01-23T23:36:00.911Z,66.37
2019-01-23T23:38:28.946Z,66.32
2019-01-23T23:40:56.991Z,66.38
2019-01-23T23:43:25.043Z,66.24
2019-01-23T23:45:53.011Z,66.28
2019-01-23T23:48:21.103Z,66.36
2019-01-23T23:50:49.120Z,66.35
2019-01-23T23:53:17.154Z,66.27
2019-01-23T23:55:45.182Z,66.19
2019-01-23T23:58:13.240Z,66.62
